sensor_id;sensor_type;location;lat;lon;timestamp;P1;durP1;ratioP1;P2;durP2;ratioP2
64459;SDS011;50828;53.756;21.140;2023-01-19T00:04:24;28.80;;;13.50;;
64459;SDS011;50828;53.756;21.140;2023-01-19T00:09:32;27.50;;;12.20;;
64459;SDS011;50828;53.756;21.140;2023-01-19T00:14:41;34.40;;;13.00;;
64459;SDS011;50828;53.756;21.140;2023-01-19T00:19:49;30.60;;;12.50;;
64459;SDS011;50828;53.756;21.140;2023-01-19T00:24:57;24.00;;;9.30;;
64459;SDS011;50828;53.756;21.140;2023-01-19T00:30:06;31.60;;;13.90;;
64459;SDS011;50828;53.756;21.140;2023-01-19T00:35:16;40.30;;;15.40;;
64459;SDS011;50828;53.756;21.140;2023-01-19T00:40:24;32.10;;;13.40;;
64459;SDS011;50828;53.756;21.140;2023-01-19T00:45:33;33.70;;;13.80;;
64459;SDS011;50828;53.756;21.140;2023-01-19T00:50:41;38.90;;;13.90;;
64459;SDS011;50828;53.756;21.140;2023-01-19T00:55:50;32.30;;;13.90;;
64459;SDS011;50828;53.756;21.140;2023-01-19T01:00:58;29.80;;;13.20;;
64459;SDS011;50828;53.756;21.140;2023-01-19T01:06:08;32.70;;;13.30;;
64459;SDS011;50828;53.756;21.140;2023-01-19T01:11:16;40.10;;;16.10;;
64459;SDS011;50828;53.756;21.140;2023-01-19T01:16:24;36.80;;;15.80;;
64459;SDS011;50828;53.756;21.140;2023-01-19T01:21:32;40.10;;;17.00;;
64459;SDS011;50828;53.756;21.140;2023-01-19T01:26:40;42.60;;;17.50;;
64459;SDS011;50828;53.756;21.140;2023-01-19T01:31:49;39.10;;;15.50;;
64459;SDS011;50828;53.756;21.140;2023-01-19T01:36:57;42.10;;;15.70;;
64459;SDS011;50828;53.756;21.140;2023-01-19T01:42:13;38.10;;;15.70;;
64459;SDS011;50828;53.756;21.140;2023-01-19T01:47:27;36.40;;;14.20;;
64459;SDS011;50828;53.756;21.140;2023-01-19T01:52:42;38.70;;;15.20;;
64459;SDS011;50828;53.756;21.140;2023-01-19T01:58:10;38.20;;;15.40;;
64459;SDS011;50828;53.756;21.140;2023-01-19T02:03:20;41.30;;;16.70;;
64459;SDS011;50828;53.756;21.140;2023-01-19T02:08:31;43.10;;;18.20;;
64459;SDS011;50828;53.756;21.140;2023-01-19T02:14:01;36.20;;;15.00;;
64459;SDS011;50828;53.756;21.140;2023-01-19T02:19:11;46.70;;;17.80;;
64459;SDS011;50828;53.756;21.140;2023-01-19T02:29:31;43.60;;;17.00;;
64459;SDS011;50828;53.756;21.140;2023-01-19T02:34:39;50.10;;;18.20;;
64459;SDS011;50828;53.756;21.140;2023-01-19T02:39:49;46.50;;;17.90;;
64459;SDS011;50828;53.756;21.140;2023-01-19T02:45:01;43.20;;;16.80;;
64459;SDS011;50828;53.756;21.140;2023-01-19T02:55:51;54.40;;;18.30;;
64459;SDS011;50828;53.756;21.140;2023-01-19T03:01:07;60.40;;;19.00;;
64459;SDS011;50828;53.756;21.140;2023-01-19T03:06:24;49.70;;;17.40;;
64459;SDS011;50828;53.756;21.140;2023-01-19T03:11:51;46.10;;;16.70;;
64459;SDS011;50828;53.756;21.140;2023-01-19T03:17:08;45.40;;;16.00;;
64459;SDS011;50828;53.756;21.140;2023-01-19T03:22:20;48.80;;;17.60;;
64459;SDS011;50828;53.756;21.140;2023-01-19T03:27:32;44.80;;;16.00;;
64459;SDS011;50828;53.756;21.140;2023-01-19T03:32:46;47.90;;;17.10;;
64459;SDS011;50828;53.756;21.140;2023-01-19T03:37:58;47.00;;;16.70;;
64459;SDS011;50828;53.756;21.140;2023-01-19T03:43:10;40.30;;;14.40;;
64459;SDS011;50828;53.756;21.140;2023-01-19T03:48:21;34.40;;;13.20;;
64459;SDS011;50828;53.756;21.140;2023-01-19T03:53:29;46.00;;;14.80;;
64459;SDS011;50828;53.756;21.140;2023-01-19T03:58:38;42.40;;;15.90;;
64459;SDS011;50828;53.756;21.140;2023-01-19T04:03:46;40.50;;;14.70;;
64459;SDS011;50828;53.756;21.140;2023-01-19T04:08:55;39.50;;;14.50;;
64459;SDS011;50828;53.756;21.140;2023-01-19T04:14:04;39.50;;;13.80;;
64459;SDS011;50828;53.756;21.140;2023-01-19T04:19:12;38.60;;;13.30;;
64459;SDS011;50828;53.756;21.140;2023-01-19T04:24:20;30.80;;;11.90;;
64459;SDS011;50828;53.756;21.140;2023-01-19T04:29:29;33.80;;;12.80;;
64459;SDS011;50828;53.756;21.140;2023-01-19T04:34:37;34.50;;;13.20;;
64459;SDS011;50828;53.756;21.140;2023-01-19T04:39:46;35.10;;;12.20;;
64459;SDS011;50828;53.756;21.140;2023-01-19T04:44:55;32.00;;;11.90;;
64459;SDS011;50828;53.756;21.140;2023-01-19T04:50:04;41.80;;;12.30;;
64459;SDS011;50828;53.756;21.140;2023-01-19T04:55:17;25.20;;;10.40;;
64459;SDS011;50828;53.756;21.140;2023-01-19T05:00:25;26.20;;;10.10;;
64459;SDS011;50828;53.756;21.140;2023-01-19T05:05:33;26.70;;;10.00;;
64459;SDS011;50828;53.756;21.140;2023-01-19T05:10:42;26.20;;;9.00;;
64459;SDS011;50828;53.756;21.140;2023-01-19T05:15:50;29.40;;;10.50;;
64459;SDS011;50828;53.756;21.140;2023-01-19T05:21:00;26.00;;;9.60;;
64459;SDS011;50828;53.756;21.140;2023-01-19T05:26:08;26.90;;;10.50;;
64459;SDS011;50828;53.756;21.140;2023-01-19T05:31:17;30.40;;;11.30;;
64459;SDS011;50828;53.756;21.140;2023-01-19T05:36:25;29.00;;;10.70;;
64459;SDS011;50828;53.756;21.140;2023-01-19T05:41:35;34.10;;;10.40;;
64459;SDS011;50828;53.756;21.140;2023-01-19T05:46:43;24.30;;;10.40;;
64459;SDS011;50828;53.756;21.140;2023-01-19T05:51:52;27.50;;;10.20;;
64459;SDS011;50828;53.756;21.140;2023-01-19T05:57:01;28.20;;;11.30;;
64459;SDS011;50828;53.756;21.140;2023-01-19T06:02:09;29.80;;;11.00;;
64459;SDS011;50828;53.756;21.140;2023-01-19T06:07:18;29.60;;;10.80;;
64459;SDS011;50828;53.756;21.140;2023-01-19T06:12:28;34.30;;;12.20;;
64459;SDS011;50828;53.756;21.140;2023-01-19T06:17:37;29.00;;;11.20;;
64459;SDS011;50828;53.756;21.140;2023-01-19T06:22:46;30.60;;;10.70;;
64459;SDS011;50828;53.756;21.140;2023-01-19T06:27:55;28.50;;;11.00;;
64459;SDS011;50828;53.756;21.140;2023-01-19T06:33:03;34.30;;;11.60;;
64459;SDS011;50828;53.756;21.140;2023-01-19T06:38:11;27.70;;;10.80;;
64459;SDS011;50828;53.756;21.140;2023-01-19T06:43:22;38.60;;;13.10;;
64459;SDS011;50828;53.756;21.140;2023-01-19T06:48:31;56.50;;;21.40;;
64459;SDS011;50828;53.756;21.140;2023-01-19T06:53:39;63.50;;;23.30;;
64459;SDS011;50828;53.756;21.140;2023-01-19T06:58:47;52.00;;;21.40;;
64459;SDS011;50828;53.756;21.140;2023-01-19T07:03:56;52.40;;;18.80;;
64459;SDS011;50828;53.756;21.140;2023-01-19T07:09:05;42.60;;;18.40;;
64459;SDS011;50828;53.756;21.140;2023-01-19T07:14:15;39.30;;;14.00;;
64459;SDS011;50828;53.756;21.140;2023-01-19T07:19:24;41.90;;;14.40;;
64459;SDS011;50828;53.756;21.140;2023-01-19T07:24:33;36.40;;;13.50;;
64459;SDS011;50828;53.756;21.140;2023-01-19T07:29:41;35.40;;;12.60;;
64459;SDS011;50828;53.756;21.140;2023-01-19T07:34:50;37.00;;;12.20;;
64459;SDS011;50828;53.756;21.140;2023-01-19T07:39:58;36.70;;;13.80;;
64459;SDS011;50828;53.756;21.140;2023-01-19T07:45:07;30.80;;;11.60;;
64459;SDS011;50828;53.756;21.140;2023-01-19T07:50:18;31.70;;;12.00;;
64459;SDS011;50828;53.756;21.140;2023-01-19T07:55:29;35.60;;;12.60;;
64459;SDS011;50828;53.756;21.140;2023-01-19T08:00:39;38.00;;;14.30;;
64459;SDS011;50828;53.756;21.140;2023-01-19T08:05:50;38.70;;;16.40;;
64459;SDS011;50828;53.756;21.140;2023-01-19T08:11:00;53.10;;;19.40;;
64459;SDS011;50828;53.756;21.140;2023-01-19T08:16:09;40.90;;;14.90;;
64459;SDS011;50828;53.756;21.140;2023-01-19T08:21:17;40.50;;;17.00;;
64459;SDS011;50828;53.756;21.140;2023-01-19T08:26:27;35.00;;;14.80;;
64459;SDS011;50828;53.756;21.140;2023-01-19T08:31:37;35.40;;;13.50;;
64459;SDS011;50828;53.756;21.140;2023-01-19T08:36:45;28.00;;;11.10;;
64459;SDS011;50828;53.756;21.140;2023-01-19T08:41:54;29.60;;;12.80;;
64459;SDS011;50828;53.756;21.140;2023-01-19T08:47:04;25.50;;;10.70;;
64459;SDS011;50828;53.756;21.140;2023-01-19T08:52:12;29.70;;;10.80;;
64459;SDS011;50828;53.756;21.140;2023-01-19T08:57:21;27.50;;;10.10;;
64459;SDS011;50828;53.756;21.140;2023-01-19T09:02:29;31.40;;;11.20;;
64459;SDS011;50828;53.756;21.140;2023-01-19T09:07:38;33.30;;;12.40;;
64459;SDS011;50828;53.756;21.140;2023-01-19T09:12:48;29.40;;;11.30;;
64459;SDS011;50828;53.756;21.140;2023-01-19T09:17:57;27.50;;;11.10;;
64459;SDS011;50828;53.756;21.140;2023-01-19T09:23:05;28.40;;;9.50;;
64459;SDS011;50828;53.756;21.140;2023-01-19T09:28:14;30.50;;;11.90;;
64459;SDS011;50828;53.756;21.140;2023-01-19T09:33:23;34.40;;;10.80;;
64459;SDS011;50828;53.756;21.140;2023-01-19T09:38:33;30.10;;;11.70;;
64459;SDS011;50828;53.756;21.140;2023-01-19T09:43:42;29.70;;;11.60;;
64459;SDS011;50828;53.756;21.140;2023-01-19T09:48:55;32.60;;;12.70;;
64459;SDS011;50828;53.756;21.140;2023-01-19T09:54:10;33.10;;;12.10;;
64459;SDS011;50828;53.756;21.140;2023-01-19T09:59:22;29.30;;;11.40;;
64459;SDS011;50828;53.756;21.140;2023-01-19T10:04:31;26.10;;;10.20;;
64459;SDS011;50828;53.756;21.140;2023-01-19T10:09:47;29.80;;;10.50;;
64459;SDS011;50828;53.756;21.140;2023-01-19T10:15:12;29.40;;;11.10;;
64459;SDS011;50828;53.756;21.140;2023-01-19T10:20:27;28.90;;;11.10;;
64459;SDS011;50828;53.756;21.140;2023-01-19T10:25:38;30.80;;;11.60;;
64459;SDS011;50828;53.756;21.140;2023-01-19T10:30:47;33.90;;;11.10;;
64459;SDS011;50828;53.756;21.140;2023-01-19T10:35:58;34.40;;;12.60;;
64459;SDS011;50828;53.756;21.140;2023-01-19T10:41:13;32.30;;;11.60;;
64459;SDS011;50828;53.756;21.140;2023-01-19T10:46:29;30.60;;;12.70;;
64459;SDS011;50828;53.756;21.140;2023-01-19T10:51:46;30.10;;;12.10;;
64459;SDS011;50828;53.756;21.140;2023-01-19T10:56:55;37.20;;;12.70;;
64459;SDS011;50828;53.756;21.140;2023-01-19T11:02:16;36.10;;;11.90;;
64459;SDS011;50828;53.756;21.140;2023-01-19T11:07:28;39.30;;;12.40;;
64459;SDS011;50828;53.756;21.140;2023-01-19T11:12:40;37.50;;;12.00;;
64459;SDS011;50828;53.756;21.140;2023-01-19T11:28:30;37.50;;;12.20;;
64459;SDS011;50828;53.756;21.140;2023-01-19T11:33:42;41.40;;;13.80;;
64459;SDS011;50828;53.756;21.140;2023-01-19T11:38:56;35.00;;;12.90;;
64459;SDS011;50828;53.756;21.140;2023-01-19T11:44:10;37.50;;;12.20;;
64459;SDS011;50828;53.756;21.140;2023-01-19T11:49:25;40.50;;;12.80;;
64459;SDS011;50828;53.756;21.140;2023-01-19T11:54:39;35.80;;;12.10;;
64459;SDS011;50828;53.756;21.140;2023-01-19T12:00:03;36.80;;;12.40;;
64459;SDS011;50828;53.756;21.140;2023-01-19T12:05:25;31.20;;;11.60;;
64459;SDS011;50828;53.756;21.140;2023-01-19T12:10:40;41.80;;;14.20;;
64459;SDS011;50828;53.756;21.140;2023-01-19T12:15:51;40.50;;;12.70;;
64459;SDS011;50828;53.756;21.140;2023-01-19T12:21:03;40.90;;;13.40;;
64459;SDS011;50828;53.756;21.140;2023-01-19T12:26:24;35.60;;;13.10;;
64459;SDS011;50828;53.756;21.140;2023-01-19T12:31:39;54.30;;;20.20;;
64459;SDS011;50828;53.756;21.140;2023-01-19T12:36:47;43.70;;;17.80;;
64459;SDS011;50828;53.756;21.140;2023-01-19T12:42:06;46.70;;;18.20;;
64459;SDS011;50828;53.756;21.140;2023-01-19T12:47:21;48.10;;;19.90;;
64459;SDS011;50828;53.756;21.140;2023-01-19T12:52:31;44.90;;;17.80;;
64459;SDS011;50828;53.756;21.140;2023-01-19T12:57:47;47.10;;;16.60;;
64459;SDS011;50828;53.756;21.140;2023-01-19T13:09:17;38.60;;;13.80;;
64459;SDS011;50828;53.756;21.140;2023-01-19T13:19:46;42.70;;;14.50;;
64459;SDS011;50828;53.756;21.140;2023-01-19T13:25:07;37.90;;;12.80;;
64459;SDS011;50828;53.756;21.140;2023-01-19T13:30:18;43.00;;;13.50;;
64459;SDS011;50828;53.756;21.140;2023-01-19T13:35:32;46.80;;;14.40;;
64459;SDS011;50828;53.756;21.140;2023-01-19T13:40:40;43.80;;;13.70;;
64459;SDS011;50828;53.756;21.140;2023-01-19T13:45:49;46.80;;;16.70;;
64459;SDS011;50828;53.756;21.140;2023-01-19T13:50:59;56.60;;;18.50;;
64459;SDS011;50828;53.756;21.140;2023-01-19T13:56:19;55.30;;;19.90;;
64459;SDS011;50828;53.756;21.140;2023-01-19T14:01:28;51.30;;;16.80;;
64459;SDS011;50828;53.756;21.140;2023-01-19T14:06:38;49.50;;;16.70;;
64459;SDS011;50828;53.756;21.140;2023-01-19T14:12:06;81.80;;;29.50;;
64459;SDS011;50828;53.756;21.140;2023-01-19T14:17:25;57.90;;;20.40;;
64459;SDS011;50828;53.756;21.140;2023-01-19T14:22:40;50.30;;;18.00;;
64459;SDS011;50828;53.756;21.140;2023-01-19T14:27:50;57.60;;;16.60;;
64459;SDS011;50828;53.756;21.140;2023-01-19T14:38:46;137.10;;;37.90;;
64459;SDS011;50828;53.756;21.140;2023-01-19T14:43:56;99.10;;;27.40;;
64459;SDS011;50828;53.756;21.140;2023-01-19T14:49:06;66.00;;;21.00;;
64459;SDS011;50828;53.756;21.140;2023-01-19T14:54:28;76.20;;;25.20;;
64459;SDS011;50828;53.756;21.140;2023-01-19T14:59:39;78.40;;;25.10;;
64459;SDS011;50828;53.756;21.140;2023-01-19T15:04:54;89.00;;;27.20;;
64459;SDS011;50828;53.756;21.140;2023-01-19T15:10:02;113.00;;;37.40;;
64459;SDS011;50828;53.756;21.140;2023-01-19T15:15:17;94.60;;;30.70;;
64459;SDS011;50828;53.756;21.140;2023-01-19T15:20:30;58.10;;;19.50;;
64459;SDS011;50828;53.756;21.140;2023-01-19T15:25:38;94.70;;;27.30;;
64459;SDS011;50828;53.756;21.140;2023-01-19T15:30:47;112.90;;;33.70;;
64459;SDS011;50828;53.756;21.140;2023-01-19T15:35:57;148.10;;;42.10;;
64459;SDS011;50828;53.756;21.140;2023-01-19T15:41:07;189.50;;;48.30;;
64459;SDS011;50828;53.756;21.140;2023-01-19T15:46:19;191.90;;;51.50;;
64459;SDS011;50828;53.756;21.140;2023-01-19T15:51:29;88.10;;;31.80;;
64459;SDS011;50828;53.756;21.140;2023-01-19T15:56:38;74.40;;;24.70;;
64459;SDS011;50828;53.756;21.140;2023-01-19T16:01:47;68.10;;;24.20;;
64459;SDS011;50828;53.756;21.140;2023-01-19T16:06:57;79.80;;;25.80;;
64459;SDS011;50828;53.756;21.140;2023-01-19T16:12:06;85.90;;;30.70;;
64459;SDS011;50828;53.756;21.140;2023-01-19T16:17:14;96.00;;;33.30;;
64459;SDS011;50828;53.756;21.140;2023-01-19T16:22:23;87.20;;;33.80;;
64459;SDS011;50828;53.756;21.140;2023-01-19T16:27:32;143.50;;;43.90;;
64459;SDS011;50828;53.756;21.140;2023-01-19T16:32:41;168.60;;;53.80;;
64459;SDS011;50828;53.756;21.140;2023-01-19T16:37:50;211.40;;;59.90;;
64459;SDS011;50828;53.756;21.140;2023-01-19T16:42:59;171.40;;;50.90;;
64459;SDS011;50828;53.756;21.140;2023-01-19T16:48:07;99.50;;;33.50;;
64459;SDS011;50828;53.756;21.140;2023-01-19T16:53:16;68.40;;;23.20;;
64459;SDS011;50828;53.756;21.140;2023-01-19T16:58:24;67.00;;;22.50;;
64459;SDS011;50828;53.756;21.140;2023-01-19T17:03:32;94.50;;;26.80;;
64459;SDS011;50828;53.756;21.140;2023-01-19T17:08:41;95.60;;;28.50;;
64459;SDS011;50828;53.756;21.140;2023-01-19T17:13:51;79.10;;;24.90;;
64459;SDS011;50828;53.756;21.140;2023-01-19T17:19:02;84.00;;;26.90;;
64459;SDS011;50828;53.756;21.140;2023-01-19T17:24:11;90.80;;;28.00;;
64459;SDS011;50828;53.756;21.140;2023-01-19T17:29:20;108.60;;;31.00;;
64459;SDS011;50828;53.756;21.140;2023-01-19T17:34:31;96.80;;;27.30;;
64459;SDS011;50828;53.756;21.140;2023-01-19T17:39:39;79.40;;;26.10;;
64459;SDS011;50828;53.756;21.140;2023-01-19T17:44:48;71.60;;;24.60;;
64459;SDS011;50828;53.756;21.140;2023-01-19T17:49:56;62.40;;;22.00;;
64459;SDS011;50828;53.756;21.140;2023-01-19T17:55:05;58.30;;;21.50;;
64459;SDS011;50828;53.756;21.140;2023-01-19T18:00:15;54.70;;;19.70;;
64459;SDS011;50828;53.756;21.140;2023-01-19T18:05:25;81.30;;;24.60;;
64459;SDS011;50828;53.756;21.140;2023-01-19T18:10:34;82.50;;;31.20;;
64459;SDS011;50828;53.756;21.140;2023-01-19T18:15:42;122.60;;;44.00;;
64459;SDS011;50828;53.756;21.140;2023-01-19T18:20:51;165.80;;;49.00;;
64459;SDS011;50828;53.756;21.140;2023-01-19T18:26:02;258.70;;;60.90;;
64459;SDS011;50828;53.756;21.140;2023-01-19T18:31:13;323.80;;;70.50;;
64459;SDS011;50828;53.756;21.140;2023-01-19T18:36:23;266.70;;;60.50;;
64459;SDS011;50828;53.756;21.140;2023-01-19T18:41:32;163.00;;;53.50;;
64459;SDS011;50828;53.756;21.140;2023-01-19T18:46:45;124.20;;;41.40;;
64459;SDS011;50828;53.756;21.140;2023-01-19T18:51:54;108.80;;;36.60;;
64459;SDS011;50828;53.756;21.140;2023-01-19T18:57:02;86.80;;;30.60;;
64459;SDS011;50828;53.756;21.140;2023-01-19T19:02:11;90.50;;;32.80;;
64459;SDS011;50828;53.756;21.140;2023-01-19T19:07:20;141.20;;;41.70;;
64459;SDS011;50828;53.756;21.140;2023-01-19T19:12:29;252.20;;;81.60;;
64459;SDS011;50828;53.756;21.140;2023-01-19T19:17:37;171.80;;;51.90;;
64459;SDS011;50828;53.756;21.140;2023-01-19T19:22:46;274.00;;;67.40;;
64459;SDS011;50828;53.756;21.140;2023-01-19T19:27:56;141.10;;;43.40;;
64459;SDS011;50828;53.756;21.140;2023-01-19T19:33:04;114.50;;;35.70;;
64459;SDS011;50828;53.756;21.140;2023-01-19T19:38:12;101.50;;;34.00;;
64459;SDS011;50828;53.756;21.140;2023-01-19T19:43:21;85.40;;;28.80;;
64459;SDS011;50828;53.756;21.140;2023-01-19T19:48:30;67.10;;;25.20;;
64459;SDS011;50828;53.756;21.140;2023-01-19T19:53:42;76.90;;;26.70;;
64459;SDS011;50828;53.756;21.140;2023-01-19T20:04:05;74.00;;;25.90;;
64459;SDS011;50828;53.756;21.140;2023-01-19T20:09:15;150.70;;;45.80;;
64459;SDS011;50828;53.756;21.140;2023-01-19T20:14:24;315.90;;;68.40;;
64459;SDS011;50828;53.756;21.140;2023-01-19T20:19:33;263.50;;;64.70;;
64459;SDS011;50828;53.756;21.140;2023-01-19T20:24:41;364.20;;;83.40;;
64459;SDS011;50828;53.756;21.140;2023-01-19T20:29:50;182.80;;;43.90;;
64459;SDS011;50828;53.756;21.140;2023-01-19T20:35:01;138.70;;;37.80;;
64459;SDS011;50828;53.756;21.140;2023-01-19T20:40:11;267.70;;;67.20;;
64459;SDS011;50828;53.756;21.140;2023-01-19T20:45:20;270.60;;;64.90;;
64459;SDS011;50828;53.756;21.140;2023-01-19T20:50:30;182.80;;;49.70;;
64459;SDS011;50828;53.756;21.140;2023-01-19T20:55:38;363.70;;;87.90;;
64459;SDS011;50828;53.756;21.140;2023-01-19T21:00:47;290.50;;;69.90;;
64459;SDS011;50828;53.756;21.140;2023-01-19T21:05:55;261.50;;;63.70;;
64459;SDS011;50828;53.756;21.140;2023-01-19T21:11:04;239.00;;;60.80;;
64459;SDS011;50828;53.756;21.140;2023-01-19T21:16:13;186.50;;;50.30;;
64459;SDS011;50828;53.756;21.140;2023-01-19T21:21:24;168.10;;;46.20;;
64459;SDS011;50828;53.756;21.140;2023-01-19T21:26:35;97.70;;;28.60;;
64459;SDS011;50828;53.756;21.140;2023-01-19T21:31:45;63.20;;;23.00;;
64459;SDS011;50828;53.756;21.140;2023-01-19T21:36:53;58.50;;;21.40;;
64459;SDS011;50828;53.756;21.140;2023-01-19T21:42:01;66.90;;;24.50;;
64459;SDS011;50828;53.756;21.140;2023-01-19T21:47:10;97.40;;;30.30;;
64459;SDS011;50828;53.756;21.140;2023-01-19T21:52:18;116.10;;;34.80;;
64459;SDS011;50828;53.756;21.140;2023-01-19T21:57:26;132.90;;;37.40;;
64459;SDS011;50828;53.756;21.140;2023-01-19T22:02:35;135.40;;;38.30;;
64459;SDS011;50828;53.756;21.140;2023-01-19T22:07:45;119.40;;;34.40;;
64459;SDS011;50828;53.756;21.140;2023-01-19T22:12:54;144.70;;;41.30;;
64459;SDS011;50828;53.756;21.140;2023-01-19T22:18:02;114.20;;;34.80;;
64459;SDS011;50828;53.756;21.140;2023-01-19T22:23:11;116.10;;;31.60;;
64459;SDS011;50828;53.756;21.140;2023-01-19T22:28:19;105.00;;;28.20;;
64459;SDS011;50828;53.756;21.140;2023-01-19T22:33:28;166.40;;;34.90;;
64459;SDS011;50828;53.756;21.140;2023-01-19T22:38:37;174.20;;;36.50;;
64459;SDS011;50828;53.756;21.140;2023-01-19T22:43:46;130.10;;;27.70;;
64459;SDS011;50828;53.756;21.140;2023-01-19T22:48:56;89.20;;;25.40;;
64459;SDS011;50828;53.756;21.140;2023-01-19T22:54:04;106.60;;;32.90;;
64459;SDS011;50828;53.756;21.140;2023-01-19T22:59:13;71.20;;;24.40;;
64459;SDS011;50828;53.756;21.140;2023-01-19T23:04:22;55.90;;;19.50;;
64459;SDS011;50828;53.756;21.140;2023-01-19T23:09:30;42.50;;;15.90;;
64459;SDS011;50828;53.756;21.140;2023-01-19T23:14:39;41.10;;;16.20;;
64459;SDS011;50828;53.756;21.140;2023-01-19T23:19:47;43.40;;;15.40;;
64459;SDS011;50828;53.756;21.140;2023-01-19T23:24:56;50.10;;;18.80;;
64459;SDS011;50828;53.756;21.140;2023-01-19T23:30:05;35.20;;;14.90;;
64459;SDS011;50828;53.756;21.140;2023-01-19T23:35:16;42.00;;;16.10;;
64459;SDS011;50828;53.756;21.140;2023-01-19T23:40:25;43.20;;;16.40;;
64459;SDS011;50828;53.756;21.140;2023-01-19T23:45:34;45.30;;;14.60;;
64459;SDS011;50828;53.756;21.140;2023-01-19T23:50:42;39.80;;;14.60;;
64459;SDS011;50828;53.756;21.140;2023-01-19T23:55:50;36.90;;;12.90;;
